Aviation Digital Data Service (ADDS)

Output produced by METARs form (0830 UTC 24 October 2014)
found at http://aviationweather.gov/adds/metars/
 
KHYA 240538Z 2406/2506 36014G24KT 4SM BR VCSH OVC005 
     FM241500 34015G25KT 6SM BR OVC015 
     FM242100 33012G19KT P6SM OVC025 
     FM250000 32010KT P6SM OVC050